sensor_id;sensor_type;location;lat;lon;timestamp;temperature;humidity
30893;DHT22;17595;50.884;4.346;2023-03-17T00:01:10;13.80;99.90
30893;DHT22;17595;50.884;4.346;2023-03-17T00:03:39;13.80;99.90
30893;DHT22;17595;50.884;4.346;2023-03-17T00:06:06;13.80;99.90
30893;DHT22;17595;50.884;4.346;2023-03-17T00:08:35;13.80;99.90
30893;DHT22;17595;50.884;4.346;2023-03-17T00:11:01;13.70;99.90
30893;DHT22;17595;50.884;4.346;2023-03-17T00:13:28;13.70;99.90
30893;DHT22;17595;50.884;4.346;2023-03-17T00:15:59;13.70;99.90
30893;DHT22;17595;50.884;4.346;2023-03-17T00:18:26;13.60;99.90
30893;DHT22;17595;50.884;4.346;2023-03-17T00:20:52;13.60;99.90
30893;DHT22;17595;50.884;4.346;2023-03-17T00:23:19;13.60;99.90
30893;DHT22;17595;50.884;4.346;2023-03-17T00:25:46;13.60;99.90
30893;DHT22;17595;50.884;4.346;2023-03-17T00:28:21;13.60;99.90
30893;DHT22;17595;50.884;4.346;2023-03-17T00:30:48;13.50;99.90
30893;DHT22;17595;50.884;4.346;2023-03-17T00:33:17;13.50;99.90
30893;DHT22;17595;50.884;4.346;2023-03-17T00:35:43;13.50;99.90
30893;DHT22;17595;50.884;4.346;2023-03-17T00:38:15;13.60;99.90
30893;DHT22;17595;50.884;4.346;2023-03-17T00:40:42;13.60;99.90
30893;DHT22;17595;50.884;4.346;2023-03-17T00:43:09;13.70;99.90
30893;DHT22;17595;50.884;4.346;2023-03-17T00:45:35;13.70;99.90
30893;DHT22;17595;50.884;4.346;2023-03-17T00:48:01;13.70;99.90
30893;DHT22;17595;50.884;4.346;2023-03-17T00:50:28;13.70;99.90
30893;DHT22;17595;50.884;4.346;2023-03-17T00:52:55;13.70;99.90
30893;DHT22;17595;50.884;4.346;2023-03-17T00:55:23;13.70;99.90
30893;DHT22;17595;50.884;4.346;2023-03-17T00:57:49;13.70;99.90
30893;DHT22;17595;50.884;4.346;2023-03-17T01:00:24;13.70;99.90
30893;DHT22;17595;50.884;4.346;2023-03-17T01:02:52;13.70;99.90
30893;DHT22;17595;50.884;4.346;2023-03-17T01:05:19;13.70;99.90
30893;DHT22;17595;50.884;4.346;2023-03-17T01:07:45;13.80;99.90
30893;DHT22;17595;50.884;4.346;2023-03-17T01:10:22;13.70;99.90
30893;DHT22;17595;50.884;4.346;2023-03-17T01:12:48;13.70;99.90
30893;DHT22;17595;50.884;4.346;2023-03-17T01:15:15;13.70;99.90
30893;DHT22;17595;50.884;4.346;2023-03-17T01:17:42;13.70;99.90
30893;DHT22;17595;50.884;4.346;2023-03-17T01:20:14;13.80;99.90
30893;DHT22;17595;50.884;4.346;2023-03-17T01:22:41;13.80;99.90
30893;DHT22;17595;50.884;4.346;2023-03-17T01:25:07;13.80;99.90
30893;DHT22;17595;50.884;4.346;2023-03-17T01:27:34;13.80;99.90
30893;DHT22;17595;50.884;4.346;2023-03-17T01:30:03;13.70;99.90
30893;DHT22;17595;50.884;4.346;2023-03-17T01:32:29;13.80;99.90
30893;DHT22;17595;50.884;4.346;2023-03-17T01:34:54;13.70;99.90
30893;DHT22;17595;50.884;4.346;2023-03-17T01:37:20;13.70;99.90
30893;DHT22;17595;50.884;4.346;2023-03-17T01:39:46;13.70;99.90
30893;DHT22;17595;50.884;4.346;2023-03-17T01:42:12;13.70;99.90
30893;DHT22;17595;50.884;4.346;2023-03-17T01:44:59;13.70;99.90
30893;DHT22;17595;50.884;4.346;2023-03-17T01:47:27;13.70;99.90
30893;DHT22;17595;50.884;4.346;2023-03-17T01:49:55;13.60;99.90
30893;DHT22;17595;50.884;4.346;2023-03-17T01:52:21;13.60;99.90
30893;DHT22;17595;50.884;4.346;2023-03-17T01:55:08;13.70;99.90
30893;DHT22;17595;50.884;4.346;2023-03-17T01:57:50;13.60;99.90
30893;DHT22;17595;50.884;4.346;2023-03-17T02:00:20;13.60;99.90
30893;DHT22;17595;50.884;4.346;2023-03-17T02:02:48;13.70;99.90
30893;DHT22;17595;50.884;4.346;2023-03-17T02:05:19;13.70;99.90
30893;DHT22;17595;50.884;4.346;2023-03-17T02:07:45;13.70;99.90
30893;DHT22;17595;50.884;4.346;2023-03-17T02:10:13;13.70;99.90
30893;DHT22;17595;50.884;4.346;2023-03-17T02:12:41;13.80;99.90
30893;DHT22;17595;50.884;4.346;2023-03-17T02:15:09;13.80;99.90
30893;DHT22;17595;50.884;4.346;2023-03-17T02:17:34;13.90;99.90
30893;DHT22;17595;50.884;4.346;2023-03-17T02:22:43;13.70;99.90
30893;DHT22;17595;50.884;4.346;2023-03-17T02:25:09;13.70;99.90
30893;DHT22;17595;50.884;4.346;2023-03-17T02:27:39;13.60;99.90
30893;DHT22;17595;50.884;4.346;2023-03-17T02:30:09;13.60;99.90
30893;DHT22;17595;50.884;4.346;2023-03-17T02:32:37;13.50;99.90
30893;DHT22;17595;50.884;4.346;2023-03-17T02:35:03;13.50;99.90
30893;DHT22;17595;50.884;4.346;2023-03-17T02:37:29;13.40;99.90
30893;DHT22;17595;50.884;4.346;2023-03-17T02:39:55;13.40;99.90
30893;DHT22;17595;50.884;4.346;2023-03-17T02:42:21;13.40;99.90
30893;DHT22;17595;50.884;4.346;2023-03-17T02:44:46;13.40;99.90
30893;DHT22;17595;50.884;4.346;2023-03-17T02:47:13;13.40;99.90
30893;DHT22;17595;50.884;4.346;2023-03-17T02:49:40;13.30;99.90
30893;DHT22;17595;50.884;4.346;2023-03-17T02:52:06;13.30;99.90
30893;DHT22;17595;50.884;4.346;2023-03-17T02:54:32;13.30;99.90
30893;DHT22;17595;50.884;4.346;2023-03-17T02:56:59;13.30;99.90
30893;DHT22;17595;50.884;4.346;2023-03-17T02:59:26;13.30;99.90
30893;DHT22;17595;50.884;4.346;2023-03-17T03:01:51;13.30;99.90
30893;DHT22;17595;50.884;4.346;2023-03-17T03:04:18;13.30;99.90
30893;DHT22;17595;50.884;4.346;2023-03-17T03:06:45;13.20;99.90
30893;DHT22;17595;50.884;4.346;2023-03-17T03:09:11;13.20;99.90
30893;DHT22;17595;50.884;4.346;2023-03-17T03:11:37;13.20;99.90
30893;DHT22;17595;50.884;4.346;2023-03-17T03:14:03;13.20;99.90
30893;DHT22;17595;50.884;4.346;2023-03-17T03:16:29;13.20;99.90
30893;DHT22;17595;50.884;4.346;2023-03-17T03:18:55;13.10;99.90
30893;DHT22;17595;50.884;4.346;2023-03-17T03:21:20;13.10;99.90
30893;DHT22;17595;50.884;4.346;2023-03-17T03:23:46;13.20;99.90
30893;DHT22;17595;50.884;4.346;2023-03-17T03:26:12;13.10;99.90
30893;DHT22;17595;50.884;4.346;2023-03-17T03:28:38;13.20;99.90
30893;DHT22;17595;50.884;4.346;2023-03-17T03:31:03;13.20;99.90
30893;DHT22;17595;50.884;4.346;2023-03-17T03:33:29;13.20;99.90
30893;DHT22;17595;50.884;4.346;2023-03-17T03:35:55;13.20;99.90
30893;DHT22;17595;50.884;4.346;2023-03-17T03:38:21;13.30;99.90
30893;DHT22;17595;50.884;4.346;2023-03-17T03:40:47;13.20;99.90
30893;DHT22;17595;50.884;4.346;2023-03-17T03:43:12;13.20;99.90
30893;DHT22;17595;50.884;4.346;2023-03-17T03:45:38;13.30;99.90
30893;DHT22;17595;50.884;4.346;2023-03-17T03:48:04;13.20;99.90
30893;DHT22;17595;50.884;4.346;2023-03-17T03:50:30;13.30;99.90
30893;DHT22;17595;50.884;4.346;2023-03-17T03:52:56;13.30;99.90
30893;DHT22;17595;50.884;4.346;2023-03-17T03:55:22;13.20;99.90
30893;DHT22;17595;50.884;4.346;2023-03-17T03:57:48;13.20;99.90
30893;DHT22;17595;50.884;4.346;2023-03-17T04:00:14;13.30;99.90
30893;DHT22;17595;50.884;4.346;2023-03-17T04:02:41;13.30;99.90
30893;DHT22;17595;50.884;4.346;2023-03-17T04:05:09;13.30;99.90
30893;DHT22;17595;50.884;4.346;2023-03-17T04:07:35;13.40;99.90
30893;DHT22;17595;50.884;4.346;2023-03-17T04:10:01;13.40;99.90
30893;DHT22;17595;50.884;4.346;2023-03-17T04:12:27;13.30;99.90
30893;DHT22;17595;50.884;4.346;2023-03-17T04:14:53;13.30;99.90
30893;DHT22;17595;50.884;4.346;2023-03-17T04:17:18;13.30;99.90
30893;DHT22;17595;50.884;4.346;2023-03-17T04:19:44;13.30;99.90
30893;DHT22;17595;50.884;4.346;2023-03-17T04:22:11;13.30;99.90
30893;DHT22;17595;50.884;4.346;2023-03-17T04:24:37;13.20;99.90
30893;DHT22;17595;50.884;4.346;2023-03-17T04:27:03;13.20;99.90
30893;DHT22;17595;50.884;4.346;2023-03-17T04:29:29;13.10;99.90
30893;DHT22;17595;50.884;4.346;2023-03-17T04:31:55;13.20;99.90
30893;DHT22;17595;50.884;4.346;2023-03-17T04:34:21;13.20;99.90
30893;DHT22;17595;50.884;4.346;2023-03-17T04:36:47;13.20;99.90
30893;DHT22;17595;50.884;4.346;2023-03-17T04:39:13;13.20;99.90
30893;DHT22;17595;50.884;4.346;2023-03-17T04:41:40;13.20;99.90
30893;DHT22;17595;50.884;4.346;2023-03-17T04:44:06;13.20;99.90
30893;DHT22;17595;50.884;4.346;2023-03-17T04:46:32;13.10;99.90
30893;DHT22;17595;50.884;4.346;2023-03-17T04:48:58;13.10;99.90
30893;DHT22;17595;50.884;4.346;2023-03-17T04:51:23;13.10;99.90
30893;DHT22;17595;50.884;4.346;2023-03-17T04:53:49;13.10;99.90
30893;DHT22;17595;50.884;4.346;2023-03-17T04:56:15;13.00;99.90
30893;DHT22;17595;50.884;4.346;2023-03-17T04:58:41;13.00;99.90
30893;DHT22;17595;50.884;4.346;2023-03-17T05:01:07;13.00;99.90
30893;DHT22;17595;50.884;4.346;2023-03-17T05:03:33;12.90;99.90
30893;DHT22;17595;50.884;4.346;2023-03-17T05:05:59;12.90;99.90
30893;DHT22;17595;50.884;4.346;2023-03-17T05:08:25;12.80;99.90
30893;DHT22;17595;50.884;4.346;2023-03-17T05:10:55;12.80;99.90
30893;DHT22;17595;50.884;4.346;2023-03-17T05:13:22;12.80;99.90
30893;DHT22;17595;50.884;4.346;2023-03-17T05:15:48;12.70;99.90
30893;DHT22;17595;50.884;4.346;2023-03-17T05:18:16;12.70;99.90
30893;DHT22;17595;50.884;4.346;2023-03-17T05:20:42;12.70;99.90
30893;DHT22;17595;50.884;4.346;2023-03-17T05:23:08;12.70;99.90
30893;DHT22;17595;50.884;4.346;2023-03-17T05:25:34;12.70;99.90
30893;DHT22;17595;50.884;4.346;2023-03-17T05:28:00;12.70;99.90
30893;DHT22;17595;50.884;4.346;2023-03-17T05:30:26;12.70;99.90
30893;DHT22;17595;50.884;4.346;2023-03-17T05:32:52;12.70;99.90
30893;DHT22;17595;50.884;4.346;2023-03-17T05:35:18;12.70;99.90
30893;DHT22;17595;50.884;4.346;2023-03-17T05:37:44;12.60;99.90
30893;DHT22;17595;50.884;4.346;2023-03-17T05:40:11;12.70;99.90
30893;DHT22;17595;50.884;4.346;2023-03-17T05:42:39;12.70;99.90
30893;DHT22;17595;50.884;4.346;2023-03-17T05:45:05;12.70;99.90
30893;DHT22;17595;50.884;4.346;2023-03-17T05:47:31;12.70;99.90
30893;DHT22;17595;50.884;4.346;2023-03-17T05:50:01;12.70;99.90
30893;DHT22;17595;50.884;4.346;2023-03-17T05:52:27;12.70;99.90
30893;DHT22;17595;50.884;4.346;2023-03-17T05:54:53;12.70;99.90
30893;DHT22;17595;50.884;4.346;2023-03-17T05:57:19;12.70;99.90
30893;DHT22;17595;50.884;4.346;2023-03-17T05:59:45;12.70;99.90
30893;DHT22;17595;50.884;4.346;2023-03-17T06:02:11;12.70;99.90
30893;DHT22;17595;50.884;4.346;2023-03-17T06:04:37;12.70;99.90
30893;DHT22;17595;50.884;4.346;2023-03-17T06:07:03;12.70;99.90
30893;DHT22;17595;50.884;4.346;2023-03-17T06:09:32;12.80;99.90
30893;DHT22;17595;50.884;4.346;2023-03-17T06:11:59;12.70;99.90
30893;DHT22;17595;50.884;4.346;2023-03-17T06:14:25;12.70;99.90
30893;DHT22;17595;50.884;4.346;2023-03-17T06:16:51;12.70;99.90
30893;DHT22;17595;50.884;4.346;2023-03-17T06:19:16;12.80;99.90
30893;DHT22;17595;50.884;4.346;2023-03-17T06:21:42;12.80;99.90
30893;DHT22;17595;50.884;4.346;2023-03-17T06:24:08;12.80;99.90
30893;DHT22;17595;50.884;4.346;2023-03-17T06:26:35;12.90;99.90
30893;DHT22;17595;50.884;4.346;2023-03-17T06:29:04;12.90;99.90
30893;DHT22;17595;50.884;4.346;2023-03-17T06:31:33;12.90;99.90
30893;DHT22;17595;50.884;4.346;2023-03-17T06:33:58;12.90;99.90
30893;DHT22;17595;50.884;4.346;2023-03-17T06:36:24;12.90;99.90
30893;DHT22;17595;50.884;4.346;2023-03-17T06:38:50;13.00;99.90
30893;DHT22;17595;50.884;4.346;2023-03-17T06:41:16;12.90;99.90
30893;DHT22;17595;50.884;4.346;2023-03-17T06:43:41;13.10;99.90
30893;DHT22;17595;50.884;4.346;2023-03-17T06:46:07;13.10;99.90
30893;DHT22;17595;50.884;4.346;2023-03-17T06:48:33;13.10;99.90
30893;DHT22;17595;50.884;4.346;2023-03-17T06:50:59;13.20;99.90
30893;DHT22;17595;50.884;4.346;2023-03-17T06:53:25;13.20;99.90
30893;DHT22;17595;50.884;4.346;2023-03-17T06:55:50;13.30;99.90
30893;DHT22;17595;50.884;4.346;2023-03-17T06:58:16;13.30;99.90
30893;DHT22;17595;50.884;4.346;2023-03-17T07:00:42;13.30;99.90
30893;DHT22;17595;50.884;4.346;2023-03-17T07:03:10;13.30;99.90
30893;DHT22;17595;50.884;4.346;2023-03-17T07:05:35;13.40;99.90
30893;DHT22;17595;50.884;4.346;2023-03-17T07:08:02;13.40;99.90
30893;DHT22;17595;50.884;4.346;2023-03-17T07:10:28;13.40;99.90
30893;DHT22;17595;50.884;4.346;2023-03-17T07:12:53;13.50;99.90
30893;DHT22;17595;50.884;4.346;2023-03-17T07:15:19;13.60;99.90
30893;DHT22;17595;50.884;4.346;2023-03-17T07:17:45;13.70;99.90
30893;DHT22;17595;50.884;4.346;2023-03-17T07:20:13;13.70;99.90
30893;DHT22;17595;50.884;4.346;2023-03-17T07:22:39;13.70;99.90
30893;DHT22;17595;50.884;4.346;2023-03-17T07:25:06;13.80;99.90
30893;DHT22;17595;50.884;4.346;2023-03-17T07:27:32;13.80;99.90
30893;DHT22;17595;50.884;4.346;2023-03-17T07:29:58;13.90;99.90
30893;DHT22;17595;50.884;4.346;2023-03-17T07:32:26;13.90;99.90
30893;DHT22;17595;50.884;4.346;2023-03-17T07:34:52;14.00;99.90
30893;DHT22;17595;50.884;4.346;2023-03-17T07:37:18;14.10;99.90
30893;DHT22;17595;50.884;4.346;2023-03-17T07:39:45;14.20;99.90
30893;DHT22;17595;50.884;4.346;2023-03-17T07:42:13;14.00;99.90
30893;DHT22;17595;50.884;4.346;2023-03-17T07:44:40;14.10;99.90
30893;DHT22;17595;50.884;4.346;2023-03-17T07:47:06;14.10;99.90
30893;DHT22;17595;50.884;4.346;2023-03-17T07:49:32;14.00;99.90
30893;DHT22;17595;50.884;4.346;2023-03-17T07:51:58;14.10;99.90
30893;DHT22;17595;50.884;4.346;2023-03-17T07:54:23;14.20;99.90
30893;DHT22;17595;50.884;4.346;2023-03-17T07:56:51;14.30;99.90
30893;DHT22;17595;50.884;4.346;2023-03-17T07:59:17;14.40;99.90
30893;DHT22;17595;50.884;4.346;2023-03-17T08:01:43;14.60;99.90
30893;DHT22;17595;50.884;4.346;2023-03-17T08:04:09;14.70;99.90
30893;DHT22;17595;50.884;4.346;2023-03-17T08:06:40;14.80;99.90
30893;DHT22;17595;50.884;4.346;2023-03-17T08:09:08;14.90;99.90
30893;DHT22;17595;50.884;4.346;2023-03-17T08:11:34;14.90;99.90
30893;DHT22;17595;50.884;4.346;2023-03-17T08:14:00;15.00;99.90
30893;DHT22;17595;50.884;4.346;2023-03-17T08:16:27;14.90;99.90
30893;DHT22;17595;50.884;4.346;2023-03-17T08:18:53;14.90;99.90
30893;DHT22;17595;50.884;4.346;2023-03-17T08:21:19;14.90;99.90
30893;DHT22;17595;50.884;4.346;2023-03-17T08:23:45;14.80;99.90
30893;DHT22;17595;50.884;4.346;2023-03-17T08:26:11;14.90;99.90
30893;DHT22;17595;50.884;4.346;2023-03-17T08:28:38;15.10;99.90
30893;DHT22;17595;50.884;4.346;2023-03-17T08:31:13;15.20;99.90
30893;DHT22;17595;50.884;4.346;2023-03-17T08:33:40;15.20;99.90
30893;DHT22;17595;50.884;4.346;2023-03-17T08:36:07;15.30;99.90
30893;DHT22;17595;50.884;4.346;2023-03-17T08:38:37;15.40;99.90
30893;DHT22;17595;50.884;4.346;2023-03-17T08:41:07;15.50;99.90
30893;DHT22;17595;50.884;4.346;2023-03-17T08:43:33;15.40;99.90
30893;DHT22;17595;50.884;4.346;2023-03-17T08:46:03;15.40;99.90
30893;DHT22;17595;50.884;4.346;2023-03-17T08:48:28;15.50;99.90
30893;DHT22;17595;50.884;4.346;2023-03-17T08:50:56;15.60;99.90
30893;DHT22;17595;50.884;4.346;2023-03-17T08:53:22;15.70;99.90
30893;DHT22;17595;50.884;4.346;2023-03-17T08:55:48;15.70;99.90
30893;DHT22;17595;50.884;4.346;2023-03-17T08:58:14;15.80;99.90
30893;DHT22;17595;50.884;4.346;2023-03-17T09:00:39;15.80;99.90
30893;DHT22;17595;50.884;4.346;2023-03-17T09:03:05;15.80;99.90
30893;DHT22;17595;50.884;4.346;2023-03-17T09:05:31;15.90;99.90
30893;DHT22;17595;50.884;4.346;2023-03-17T09:07:56;16.00;99.90
30893;DHT22;17595;50.884;4.346;2023-03-17T09:10:22;16.00;99.90
30893;DHT22;17595;50.884;4.346;2023-03-17T09:12:49;16.10;99.90
30893;DHT22;17595;50.884;4.346;2023-03-17T09:15:16;16.10;99.90
30893;DHT22;17595;50.884;4.346;2023-03-17T09:17:42;15.90;99.90
30893;DHT22;17595;50.884;4.346;2023-03-17T09:20:09;15.70;99.90
30893;DHT22;17595;50.884;4.346;2023-03-17T09:22:35;15.70;99.90
30893;DHT22;17595;50.884;4.346;2023-03-17T09:25:02;15.70;99.90
30893;DHT22;17595;50.884;4.346;2023-03-17T09:27:28;15.70;99.90
30893;DHT22;17595;50.884;4.346;2023-03-17T09:29:53;15.70;99.90
30893;DHT22;17595;50.884;4.346;2023-03-17T09:32:19;15.70;99.90
30893;DHT22;17595;50.884;4.346;2023-03-17T09:34:44;15.80;99.90
30893;DHT22;17595;50.884;4.346;2023-03-17T09:37:10;15.80;99.90
30893;DHT22;17595;50.884;4.346;2023-03-17T09:39:36;15.80;99.90
30893;DHT22;17595;50.884;4.346;2023-03-17T09:42:23;15.80;99.90
30893;DHT22;17595;50.884;4.346;2023-03-17T09:45:10;15.80;99.90
30893;DHT22;17595;50.884;4.346;2023-03-17T09:53:53;16.20;99.90
30893;DHT22;17595;50.884;4.346;2023-03-17T09:56:21;16.40;99.90
30893;DHT22;17595;50.884;4.346;2023-03-17T09:58:57;16.50;99.90
30893;DHT22;17595;50.884;4.346;2023-03-17T10:01:24;16.70;99.90
30893;DHT22;17595;50.884;4.346;2023-03-17T10:03:50;16.80;99.90
30893;DHT22;17595;50.884;4.346;2023-03-17T10:06:54;16.80;99.90
30893;DHT22;17595;50.884;4.346;2023-03-17T10:09:40;16.80;99.90
30893;DHT22;17595;50.884;4.346;2023-03-17T10:12:16;16.40;99.90
30893;DHT22;17595;50.884;4.346;2023-03-17T10:14:59;16.40;99.90
30893;DHT22;17595;50.884;4.346;2023-03-17T10:17:39;16.70;99.90
30893;DHT22;17595;50.884;4.346;2023-03-17T10:22:59;17.20;99.90
30893;DHT22;17595;50.884;4.346;2023-03-17T10:25:29;17.10;99.90
30893;DHT22;17595;50.884;4.346;2023-03-17T10:30:40;17.20;99.90
30893;DHT22;17595;50.884;4.346;2023-03-17T10:33:07;17.40;99.90
30893;DHT22;17595;50.884;4.346;2023-03-17T10:35:34;17.30;99.90
30893;DHT22;17595;50.884;4.346;2023-03-17T10:38:12;17.50;99.90
30893;DHT22;17595;50.884;4.346;2023-03-17T10:40:39;17.70;99.90
30893;DHT22;17595;50.884;4.346;2023-03-17T10:43:09;17.80;99.90
30893;DHT22;17595;50.884;4.346;2023-03-17T10:45:38;17.90;99.90
30893;DHT22;17595;50.884;4.346;2023-03-17T10:48:16;17.90;99.90
30893;DHT22;17595;50.884;4.346;2023-03-17T10:50:45;18.10;99.90
30893;DHT22;17595;50.884;4.346;2023-03-17T10:53:23;18.20;99.90
30893;DHT22;17595;50.884;4.346;2023-03-17T10:56:08;18.40;99.90
30893;DHT22;17595;50.884;4.346;2023-03-17T10:58:48;18.40;99.90
30893;DHT22;17595;50.884;4.346;2023-03-17T11:01:21;18.60;99.90
30893;DHT22;17595;50.884;4.346;2023-03-17T11:03:48;18.60;99.90
30893;DHT22;17595;50.884;4.346;2023-03-17T11:06:16;18.70;99.90
30893;DHT22;17595;50.884;4.346;2023-03-17T11:08:53;18.80;99.90
30893;DHT22;17595;50.884;4.346;2023-03-17T11:11:27;18.90;99.90
30893;DHT22;17595;50.884;4.346;2023-03-17T11:14:01;18.80;99.90
30893;DHT22;17595;50.884;4.346;2023-03-17T11:16:30;18.70;99.90
30893;DHT22;17595;50.884;4.346;2023-03-17T11:18:57;18.90;99.90
30893;DHT22;17595;50.884;4.346;2023-03-17T11:21:53;18.90;99.90
30893;DHT22;17595;50.884;4.346;2023-03-17T11:24:29;18.90;99.90
30893;DHT22;17595;50.884;4.346;2023-03-17T11:27:38;18.90;99.90
30893;DHT22;17595;50.884;4.346;2023-03-17T11:38:23;18.90;99.90
30893;DHT22;17595;50.884;4.346;2023-03-17T11:41:15;19.00;99.90
30893;DHT22;17595;50.884;4.346;2023-03-17T11:43:56;19.10;99.90
30893;DHT22;17595;50.884;4.346;2023-03-17T11:46:45;19.20;99.90
30893;DHT22;17595;50.884;4.346;2023-03-17T11:57:43;19.20;99.90
30893;DHT22;17595;50.884;4.346;2023-03-17T12:00:41;19.20;99.90
30893;DHT22;17595;50.884;4.346;2023-03-17T12:03:21;19.00;99.90
30893;DHT22;17595;50.884;4.346;2023-03-17T12:05:54;19.20;99.90
30893;DHT22;17595;50.884;4.346;2023-03-17T12:08:47;19.30;99.90
30893;DHT22;17595;50.884;4.346;2023-03-17T12:11:26;19.20;99.90
30893;DHT22;17595;50.884;4.346;2023-03-17T12:14:04;19.00;99.90
30893;DHT22;17595;50.884;4.346;2023-03-17T12:16:37;19.10;99.90
30893;DHT22;17595;50.884;4.346;2023-03-17T12:19:31;19.10;99.90
30893;DHT22;17595;50.884;4.346;2023-03-17T12:22:16;19.10;99.90
30893;DHT22;17595;50.884;4.346;2023-03-17T12:25:15;18.90;99.90
30893;DHT22;17595;50.884;4.346;2023-03-17T12:28:03;19.00;99.90
30893;DHT22;17595;50.884;4.346;2023-03-17T12:30:44;19.40;99.90
30893;DHT22;17595;50.884;4.346;2023-03-17T12:36:01;19.50;99.90
30893;DHT22;17595;50.884;4.346;2023-03-17T12:38:37;19.60;99.90
30893;DHT22;17595;50.884;4.346;2023-03-17T12:43:56;19.50;99.90
30893;DHT22;17595;50.884;4.346;2023-03-17T12:52:00;19.60;99.90
30893;DHT22;17595;50.884;4.346;2023-03-17T12:54:34;19.40;99.90
30893;DHT22;17595;50.884;4.346;2023-03-17T12:59:42;19.20;99.90
30893;DHT22;17595;50.884;4.346;2023-03-17T13:04:56;19.40;99.90
30893;DHT22;17595;50.884;4.346;2023-03-17T13:10:37;19.00;99.90
30893;DHT22;17595;50.884;4.346;2023-03-17T13:15:53;18.90;99.90
30893;DHT22;17595;50.884;4.346;2023-03-17T13:21:11;18.90;99.90
30893;DHT22;17595;50.884;4.346;2023-03-17T13:23:52;18.90;99.90
30893;DHT22;17595;50.884;4.346;2023-03-17T13:26:21;19.00;99.90
30893;DHT22;17595;50.884;4.346;2023-03-17T13:29:02;19.20;99.90
30893;DHT22;17595;50.884;4.346;2023-03-17T13:31:46;19.30;99.90
30893;DHT22;17595;50.884;4.346;2023-03-17T13:34:14;19.30;99.90
30893;DHT22;17595;50.884;4.346;2023-03-17T13:37:00;19.20;99.90
30893;DHT22;17595;50.884;4.346;2023-03-17T13:45:18;19.30;99.90
30893;DHT22;17595;50.884;4.346;2023-03-17T13:47:46;19.50;99.90
30893;DHT22;17595;50.884;4.346;2023-03-17T13:50:14;19.60;99.90
30893;DHT22;17595;50.884;4.346;2023-03-17T13:53:06;19.60;99.90
30893;DHT22;17595;50.884;4.346;2023-03-17T13:55:40;19.80;99.90
30893;DHT22;17595;50.884;4.346;2023-03-17T14:00:40;19.90;99.90
30893;DHT22;17595;50.884;4.346;2023-03-17T14:03:18;19.90;99.90
30893;DHT22;17595;50.884;4.346;2023-03-17T14:05:49;19.90;99.90
30893;DHT22;17595;50.884;4.346;2023-03-17T14:08:21;20.00;99.90
30893;DHT22;17595;50.884;4.346;2023-03-17T14:10:56;20.30;99.90
30893;DHT22;17595;50.884;4.346;2023-03-17T14:14:13;20.30;99.90
30893;DHT22;17595;50.884;4.346;2023-03-17T14:16:25;20.10;99.90
30893;DHT22;17595;50.884;4.346;2023-03-17T14:22:18;20.30;99.90
30893;DHT22;17595;50.884;4.346;2023-03-17T14:24:43;20.10;99.90
30893;DHT22;17595;50.884;4.346;2023-03-17T14:27:13;20.20;99.90
30893;DHT22;17595;50.884;4.346;2023-03-17T14:29:39;20.20;99.90
30893;DHT22;17595;50.884;4.346;2023-03-17T14:32:17;20.40;99.90
30893;DHT22;17595;50.884;4.346;2023-03-17T14:34:52;20.40;99.90
30893;DHT22;17595;50.884;4.346;2023-03-17T14:37:19;20.40;99.90
30893;DHT22;17595;50.884;4.346;2023-03-17T14:39:47;20.50;99.90
30893;DHT22;17595;50.884;4.346;2023-03-17T14:42:18;20.50;99.90
30893;DHT22;17595;50.884;4.346;2023-03-17T14:44:44;20.20;99.90
30893;DHT22;17595;50.884;4.346;2023-03-17T14:47:22;20.30;99.90
30893;DHT22;17595;50.884;4.346;2023-03-17T14:49:51;20.20;99.90
30893;DHT22;17595;50.884;4.346;2023-03-17T14:52:23;20.10;99.90
30893;DHT22;17595;50.884;4.346;2023-03-17T14:54:52;19.90;99.90
30893;DHT22;17595;50.884;4.346;2023-03-17T14:57:23;19.60;99.90
30893;DHT22;17595;50.884;4.346;2023-03-17T15:02:40;19.60;99.90
30893;DHT22;17595;50.884;4.346;2023-03-17T15:05:28;19.80;99.90
30893;DHT22;17595;50.884;4.346;2023-03-17T15:07:55;19.90;99.90
30893;DHT22;17595;50.884;4.346;2023-03-17T15:10:26;19.90;99.90
30893;DHT22;17595;50.884;4.346;2023-03-17T15:13:03;19.90;99.90
30893;DHT22;17595;50.884;4.346;2023-03-17T15:15:32;20.00;99.90
30893;DHT22;17595;50.884;4.346;2023-03-17T15:18:03;20.10;99.90
30893;DHT22;17595;50.884;4.346;2023-03-17T15:20:33;20.10;99.90
30893;DHT22;17595;50.884;4.346;2023-03-17T15:23:16;20.00;99.90
30893;DHT22;17595;50.884;4.346;2023-03-17T15:25:47;20.00;99.90
30893;DHT22;17595;50.884;4.346;2023-03-17T15:28:21;20.00;99.90
30893;DHT22;17595;50.884;4.346;2023-03-17T15:30:49;20.00;99.90
30893;DHT22;17595;50.884;4.346;2023-03-17T15:35:40;20.00;99.90
30893;DHT22;17595;50.884;4.346;2023-03-17T15:38:09;20.00;99.90
30893;DHT22;17595;50.884;4.346;2023-03-17T15:40:35;19.90;99.90
30893;DHT22;17595;50.884;4.346;2023-03-17T15:43:01;19.90;99.90
30893;DHT22;17595;50.884;4.346;2023-03-17T15:45:27;19.80;99.90
30893;DHT22;17595;50.884;4.346;2023-03-17T15:47:53;19.80;99.90
30893;DHT22;17595;50.884;4.346;2023-03-17T15:50:25;19.70;99.90
30893;DHT22;17595;50.884;4.346;2023-03-17T15:52:52;19.50;99.90
30893;DHT22;17595;50.884;4.346;2023-03-17T15:55:23;19.30;99.90
30893;DHT22;17595;50.884;4.346;2023-03-17T15:57:50;18.90;99.90
30893;DHT22;17595;50.884;4.346;2023-03-17T16:00:19;18.80;99.90
30893;DHT22;17595;50.884;4.346;2023-03-17T16:02:46;18.70;99.90
30893;DHT22;17595;50.884;4.346;2023-03-17T16:05:18;18.70;99.90
30893;DHT22;17595;50.884;4.346;2023-03-17T16:07:45;18.80;99.90
30893;DHT22;17595;50.884;4.346;2023-03-17T16:10:20;18.90;99.90
30893;DHT22;17595;50.884;4.346;2023-03-17T16:12:47;18.90;99.90
30893;DHT22;17595;50.884;4.346;2023-03-17T16:15:18;19.00;99.90
30893;DHT22;17595;50.884;4.346;2023-03-17T16:17:45;19.00;99.90
30893;DHT22;17595;50.884;4.346;2023-03-17T16:20:29;18.90;99.90
30893;DHT22;17595;50.884;4.346;2023-03-17T16:22:59;18.90;99.90
30893;DHT22;17595;50.884;4.346;2023-03-17T16:25:30;18.60;99.90
30893;DHT22;17595;50.884;4.346;2023-03-17T16:27:59;18.50;99.90
30893;DHT22;17595;50.884;4.346;2023-03-17T16:30:28;18.40;99.90
30893;DHT22;17595;50.884;4.346;2023-03-17T16:32:57;18.30;99.90
30893;DHT22;17595;50.884;4.346;2023-03-17T16:35:24;18.20;99.90
30893;DHT22;17595;50.884;4.346;2023-03-17T16:37:51;18.40;99.90
30893;DHT22;17595;50.884;4.346;2023-03-17T16:40:25;18.40;99.90
30893;DHT22;17595;50.884;4.346;2023-03-17T16:42:51;18.40;99.90
30893;DHT22;17595;50.884;4.346;2023-03-17T16:47:49;18.50;99.90
30893;DHT22;17595;50.884;4.346;2023-03-17T16:50:22;18.50;99.90
30893;DHT22;17595;50.884;4.346;2023-03-17T16:52:49;18.40;99.90
30893;DHT22;17595;50.884;4.346;2023-03-17T16:55:16;18.40;99.90
30893;DHT22;17595;50.884;4.346;2023-03-17T16:57:45;18.40;99.90
30893;DHT22;17595;50.884;4.346;2023-03-17T17:00:19;18.40;99.90